Time;durP1;ratioP1;P1;durP2;ratioP2;P2;SDS_P1;SDS_P2;PMS_P1;PMS_P2;Temp;Humidity;BMP_temperature;BMP_pressure;BME280_temperature;BME280_humidity;BME280_pressure;Samples;Min_cycle;Max_cycle;Signal;HPM_P1;HPM_P2
2023/01/07 00:01:04;;;;;;;37.83;21.67;;;8.30;99.90;;;;;;5011474;28;20491;-70
2023/01/07 00:03:30;;;;;;;40.58;23.50;;;8.40;99.90;;;;;;5011397;28;20045;-70
2023/01/07 00:06:00;;;;;;;43.10;24.83;;;8.30;99.90;;;;;;4994347;28;20069;-70
2023/01/07 00:08:27;;;;;;;42.70;24.92;;;8.30;99.90;;;;;;5011820;28;20534;-70
2023/01/07 00:10:53;;;;;;;44.33;24.83;;;8.40;99.90;;;;;;5012101;28;20045;-70
2023/01/07 00:13:18;;;;;;;45.50;25.38;;;8.60;99.90;;;;;;5011131;28;20049;-70
2023/01/07 00:15:44;;;;;;;45.47;25.70;;;8.70;99.90;;;;;;5011996;28;20361;-70
2023/01/07 00:18:09;;;;;;;49.67;26.95;;;8.50;99.90;;;;;;5011812;28;20060;-70
2023/01/07 00:20:35;;;;;;;46.92;26.40;;;8.60;99.90;;;;;;4994309;28;20061;-70
2023/01/07 00:23:00;;;;;;;54.88;29.67;;;8.70;99.90;;;;;;5010931;28;20038;-70
2023/01/07 00:25:27;;;;;;;40.05;23.38;;;8.70;99.90;;;;;;5011901;28;20054;-70
2023/01/07 00:27:52;;;;;;;45.80;26.17;;;8.80;99.90;;;;;;4994090;28;20046;-70
2023/01/07 00:30:18;;;;;;;43.35;26.02;;;8.80;99.90;;;;;;4994162;28;20056;-70
2023/01/07 00:32:53;;;;;;;52.85;28.70;;;9.00;99.90;;;;;;4993512;28;20042;-70
2023/01/07 00:35:22;;;;;;;45.85;26.70;;;9.10;99.90;;;;;;4994223;28;20514;-70
2023/01/07 00:37:52;;;;;;;44.55;27.05;;;9.00;99.90;;;;;;5002742;28;20037;-70
2023/01/07 00:40:18;;;;;;;51.58;27.60;;;9.00;99.90;;;;;;5013009;28;20080;-71
2023/01/07 00:42:53;;;;;;;52.17;28.70;;;9.10;99.90;;;;;;5013019;28;20060;-71
2023/01/07 00:45:23;;;;;;;51.22;28.35;;;9.30;99.90;;;;;;5031407;28;20120;-70
2023/01/07 00:47:52;;;;;;;52.85;26.20;;;9.20;99.90;;;;;;5014761;28;20060;-70
2023/01/07 00:50:23;;;;;;;48.08;27.20;;;9.30;99.90;;;;;;5026073;28;20041;-70
2023/01/07 00:52:49;;;;;;;50.92;26.58;;;9.30;99.90;;;;;;4997389;28;20110;-70
2023/01/07 00:55:15;;;;;;;56.80;28.08;;;9.40;99.90;;;;;;5013866;28;20053;-70
2023/01/07 00:57:42;;;;;;;55.67;28.27;;;9.50;99.90;;;;;;5067699;22;20503;-71
2023/01/07 01:00:12;;;;;;;50.85;26.52;;;9.40;99.90;;;;;;5050759;28;20522;-71
2023/01/07 01:02:38;;;;;;;55.95;27.08;;;9.50;99.90;;;;;;5050146;28;20453;-71
2023/01/07 01:05:04;;;;;;;52.70;27.63;;;9.50;99.90;;;;;;5032619;28;20048;-71
2023/01/07 01:07:30;;;;;;;51.63;26.80;;;9.60;99.90;;;;;;5067812;28;20078;-71
2023/01/07 01:09:55;;;;;;;50.55;26.48;;;9.50;99.90;;;;;;5074784;28;20040;-71
2023/01/07 01:12:21;;;;;;;53.50;27.15;;;9.70;99.90;;;;;;5073942;28;20029;-71
2023/01/07 01:14:47;;;;;;;46.67;24.90;;;9.60;99.90;;;;;;5074502;28;20536;-71
2023/01/07 01:17:12;;;;;;;58.15;28.25;;;9.70;99.90;;;;;;5074269;28;20044;-71
2023/01/07 01:19:38;;;;;;;52.13;26.65;;;9.70;99.90;;;;;;5074672;28;20044;-71
2023/01/07 01:22:03;;;;;;;61.22;28.60;;;9.80;99.90;;;;;;5074642;28;20123;-72
2023/01/07 01:24:29;;;;;;;49.28;26.40;;;9.80;99.90;;;;;;5073763;28;20410;-71
2023/01/07 01:26:54;;;;;;;48.20;26.17;;;9.70;99.90;;;;;;5074151;28;20029;-71
2023/01/07 01:29:20;;;;;;;48.60;25.92;;;9.70;99.90;;;;;;5074179;28;20407;-71
2023/01/07 01:31:45;;;;;;;55.88;27.77;;;9.70;99.90;;;;;;5074217;28;20032;-71
2023/01/07 01:34:11;;;;;;;47.28;26.23;;;9.90;99.90;;;;;;5073670;28;20044;-72
2023/01/07 01:36:37;;;;;;;54.80;27.13;;;9.80;99.90;;;;;;5056014;28;20041;-71
2023/01/07 01:39:03;;;;;;;52.50;26.17;;;9.90;99.90;;;;;;5056566;28;20040;-71
2023/01/07 01:41:29;;;;;;;47.17;25.30;;;10.00;99.90;;;;;;5074084;28;20075;-71
2023/01/07 01:43:55;;;;;;;52.78;26.70;;;9.90;99.90;;;;;;5055295;28;20079;-71
2023/01/07 01:46:29;;;;;;;49.30;24.70;;;9.90;99.90;;;;;;5039113;28;20045;-71
2023/01/07 01:49:04;;;;;;;50.58;28.00;;;10.00;99.90;;;;;;5056329;28;20136;-72
2023/01/07 01:51:35;;;;;;;47.50;26.05;;;10.00;99.90;;;;;;5039435;28;20032;-72
2023/01/07 01:54:05;;;;;;;49.97;25.98;;;10.10;99.90;;;;;;5055200;28;20063;-71
2023/01/07 01:56:39;;;;;;;47.22;26.00;;;10.00;99.90;;;;;;5073297;28;20037;-71
2023/01/07 01:59:09;;;;;;;53.88;26.48;;;10.00;99.90;;;;;;5073959;28;20045;-71
2023/01/07 02:01:35;;;;;;;46.95;24.85;;;10.00;99.90;;;;;;5073991;28;20172;-71
2023/01/07 02:04:07;;;;;;;46.03;24.40;;;10.10;99.90;;;;;;5072706;28;20498;-71
2023/01/07 02:06:35;;;;;;;48.30;25.77;;;10.20;99.90;;;;;;5073480;28;20522;-71
2023/01/07 02:09:01;;;;;;;49.60;25.95;;;10.10;99.90;;;;;;5073312;28;20048;-71
2023/01/07 02:11:51;;;;;;;59.13;28.88;;;10.20;99.90;;;;;;5073797;28;20040;-71
2023/01/07 02:14:53;;;;;;;48.80;26.95;;;10.20;99.90;;;;;;5072718;28;20402;-71
2023/01/07 02:17:56;;;;;;;45.00;24.83;;;10.20;99.90;;;;;;5072988;28;20032;-71
2023/01/07 02:20:33;;;;;;;43.17;24.48;;;10.30;99.90;;;;;;5073269;28;20502;-72
2023/01/07 02:23:02;;;;;;;49.47;26.13;;;10.20;99.90;;;;;;5072652;28;20048;-71
2023/01/07 02:25:46;;;;;;;58.72;27.45;;;10.30;99.90;;;;;;5073052;28;20094;-72
2023/01/07 02:28:11;;;;;;;;;;;10.40;99.90;;;;;;5073975;28;20094;-72
2023/01/07 02:31:14;;;;;;;50.15;27.35;;;10.30;99.90;;;;;;5073269;28;19917;-71
2023/01/07 02:33:57;;;;;;;49.47;27.02;;;10.30;99.90;;;;;;5072438;28;20402;-71
2023/01/07 02:36:47;;;;;;;46.47;26.13;;;10.30;99.90;;;;;;5073255;28;20037;-71
2023/01/07 02:39:24;;;;;;;54.53;28.25;;;10.30;99.90;;;;;;5072904;28;20517;-71
2023/01/07 02:42:02;;;;;;;45.30;25.63;;;10.30;99.90;;;;;;5072711;28;20066;-71
2023/01/07 02:44:46;;;;;;;50.58;26.85;;;10.30;99.90;;;;;;5072106;28;20098;-70
2023/01/07 02:47:33;;;;;;;48.22;27.98;;;10.40;99.90;;;;;;5054680;28;20506;-70
2023/01/07 02:49:58;;;;;;;45.40;26.73;;;10.40;99.90;;;;;;5038040;28;20086;-70
2023/01/07 02:52:27;;;;;;;48.00;27.40;;;10.40;99.90;;;;;;5071893;28;20032;-70
2023/01/07 02:54:53;;;;;;;43.92;26.10;;;10.40;99.90;;;;;;5072427;28;20057;-70
2023/01/07 02:57:39;;;;;;;43.83;25.77;;;10.40;99.90;;;;;;5072155;28;20032;-70
2023/01/07 03:00:36;;;;;;;55.95;28.80;;;10.50;99.90;;;;;;5054856;28;20072;-71
2023/01/07 03:03:45;;;;;;;50.53;28.92;;;10.40;99.90;;;;;;5071646;28;20359;-70
2023/01/07 03:06:37;;;;;;;43.75;26.63;;;10.40;99.90;;;;;;5071982;28;20162;-70
2023/01/07 03:09:27;;;;;;;46.20;27.73;;;10.50;99.90;;;;;;5072430;28;20043;-70
2023/01/07 03:12:20;;;;;;;43.38;26.35;;;10.50;99.90;;;;;;5072615;28;20033;-71
2023/01/07 03:15:18;;;;;;;47.55;27.63;;;10.50;99.90;;;;;;5054252;28;20040;-70
2023/01/07 03:18:05;;;;;;;50.35;28.25;;;10.50;99.90;;;;;;5068843;28;20067;-70
2023/01/07 03:20:34;;;;;;;43.25;26.17;;;10.40;99.90;;;;;;5054148;28;20071;-70
2023/01/07 03:23:05;;;;;;;47.38;29.00;;;10.40;99.90;;;;;;5071466;28;20041;-70
2023/01/07 03:25:33;;;;;;;42.90;26.48;;;10.50;99.90;;;;;;5071843;28;20040;-71
2023/01/07 03:27:59;;;;;;;44.03;27.65;;;10.50;99.90;;;;;;5071895;28;20068;-70
2023/01/07 03:30:26;;;;;;;39.55;26.02;;;10.50;99.90;;;;;;5071534;28;20068;-70
2023/01/07 03:33:10;;;;;;;41.33;27.05;;;10.60;99.90;;;;;;5053409;28;20498;-71
2023/01/07 03:35:39;;;;;;;38.85;25.58;;;10.50;99.90;;;;;;5054017;28;20040;-71
2023/01/07 03:38:06;;;;;;;42.05;27.35;;;10.50;99.90;;;;;;5071755;28;20048;-70
2023/01/07 03:40:32;;;;;;;38.03;24.67;;;10.60;99.90;;;;;;5071808;28;20442;-70
2023/01/07 03:42:58;;;;;;;35.17;24.77;;;10.60;99.90;;;;;;5071158;28;20036;-70
2023/01/07 03:45:26;;;;;;;37.05;25.58;;;10.60;99.90;;;;;;5071635;28;20119;-71
2023/01/07 03:47:54;;;;;;;38.03;25.92;;;10.60;99.90;;;;;;5071686;28;20143;-70
2023/01/07 03:50:21;;;;;;;35.63;25.00;;;10.60;99.90;;;;;;5053890;28;20596;-71
2023/01/07 03:52:47;;;;;;;36.17;25.70;;;10.60;99.90;;;;;;5070838;28;20033;-71
2023/01/07 03:55:13;;;;;;;38.60;25.17;;;10.50;99.90;;;;;;5071127;28;20115;-70
2023/01/07 03:57:39;;;;;;;38.53;26.10;;;10.60;99.90;;;;;;5085893;28;20059;-70
2023/01/07 04:00:11;;;;;;;36.30;25.38;;;10.50;99.90;;;;;;5091638;28;20040;-71
2023/01/07 04:02:36;;;;;;;37.72;25.75;;;10.50;99.90;;;;;;5072909;28;20043;-71
2023/01/07 04:05:03;;;;;;;35.47;23.85;;;10.60;99.90;;;;;;5091776;28;20040;-70
2023/01/07 04:07:28;;;;;;;40.60;26.15;;;10.50;99.90;;;;;;5091345;28;20047;-71
2023/01/07 04:09:54;;;;;;;35.00;24.65;;;10.60;99.90;;;;;;5091487;28;20040;-71
2023/01/07 04:12:19;;;;;;;38.40;25.63;;;10.50;99.90;;;;;;5090748;28;20405;-71
2023/01/07 04:14:45;;;;;;;35.55;24.77;;;10.60;99.90;;;;;;5073349;28;20394;-71
2023/01/07 04:17:10;;;;;;;38.20;25.38;;;10.50;99.90;;;;;;5072774;28;20040;-71
2023/01/07 04:19:37;;;;;;;37.83;24.13;;;10.50;99.90;;;;;;5073064;28;20043;-71
2023/01/07 04:22:09;;;;;;;35.20;24.10;;;10.60;99.90;;;;;;5091241;28;20044;-70
2023/01/07 04:24:34;;;;;;;33.13;23.15;;;10.60;99.90;;;;;;5090377;28;20709;-70
2023/01/07 04:27:00;;;;;;;36.50;23.45;;;10.60;99.90;;;;;;5091383;28;20036;-71
2023/01/07 04:29:26;;;;;;;31.70;22.27;;;10.50;99.90;;;;;;5091473;28;20466;-71
2023/01/07 04:31:52;;;;;;;35.53;23.38;;;10.60;99.90;;;;;;5072797;28;20048;-71
2023/01/07 04:34:17;;;;;;;35.50;24.08;;;10.50;99.90;;;;;;5089581;28;20040;-71
2023/01/07 04:36:43;;;;;;;39.65;25.10;;;10.60;99.90;;;;;;5072672;28;20048;-71
2023/01/07 04:39:09;;;;;;;33.20;23.60;;;10.60;99.90;;;;;;5090972;28;20131;-71
2023/01/07 04:41:34;;;;;;;37.38;24.95;;;10.50;99.90;;;;;;5093309;28;20040;-70
2023/01/07 04:44:00;;;;;;;33.22;22.42;;;10.50;99.90;;;;;;5094663;28;20032;-71
2023/01/07 04:46:26;;;;;;;33.60;23.67;;;10.40;99.90;;;;;;5095173;28;20036;-71
2023/01/07 04:48:51;;;;;;;28.05;20.80;;;10.50;99.90;;;;;;5095370;28;20039;-70
2023/01/07 04:51:19;;;;;;;29.77;21.40;;;10.50;99.90;;;;;;5095226;28;20043;-70
2023/01/07 04:53:45;;;;;;;31.35;23.13;;;10.50;99.90;;;;;;5094288;28;20068;-70
2023/01/07 04:56:10;;;;;;;29.95;20.52;;;10.40;99.90;;;;;;5092561;28;21752;-70
2023/01/07 04:58:36;;;;;;;28.98;20.70;;;10.60;99.90;;;;;;5074909;28;20047;-70
2023/01/07 05:01:02;;;;;;;32.35;21.90;;;10.40;99.90;;;;;;5074645;28;20119;-70
2023/01/07 05:03:28;;;;;;;27.40;20.02;;;10.50;99.90;;;;;;5056177;28;20036;-71
2023/01/07 05:05:55;;;;;;;26.05;19.67;;;10.40;99.90;;;;;;5074408;28;20040;-73
2023/01/07 05:08:23;;;;;;;29.65;19.85;;;10.60;99.90;;;;;;5074661;28;20280;-71
2023/01/07 05:10:49;;;;;;;30.05;18.95;;;10.50;99.90;;;;;;5074385;28;20029;-71
2023/01/07 05:13:16;;;;;;;27.83;19.35;;;10.40;99.90;;;;;;5073690;28;20486;-71
2023/01/07 05:15:42;;;;;;;28.58;17.80;;;10.50;99.90;;;;;;5074593;28;20040;-70
2023/01/07 05:18:07;;;;;;;24.77;18.67;;;10.50;99.90;;;;;;5074357;28;20470;-70
2023/01/07 05:20:33;;;;;;;30.00;18.63;;;10.50;99.90;;;;;;5074152;28;20525;-70
2023/01/07 05:22:58;;;;;;;24.25;17.30;;;10.50;99.90;;;;;;5073933;28;20398;-70
2023/01/07 05:25:24;;;;;;;25.52;17.80;;;10.50;99.90;;;;;;5074220;28;20045;-70
2023/01/07 05:27:49;;;;;;;23.15;17.10;;;10.50;99.90;;;;;;5074158;28;20109;-71
2023/01/07 05:30:15;;;;;;;29.65;19.15;;;10.40;99.90;;;;;;5074238;28;20194;-72
2023/01/07 05:32:40;;;;;;;25.25;18.45;;;10.50;99.90;;;;;;5072947;28;20036;-71
2023/01/07 05:35:07;;;;;;;22.33;17.60;;;10.50;99.90;;;;;;5073966;28;20564;-70
2023/01/07 05:37:33;;;;;;;22.85;17.00;;;10.40;99.90;;;;;;5074096;28;20044;-70
2023/01/07 05:39:58;;;;;;;25.30;17.20;;;10.30;99.90;;;;;;5074338;28;20037;-70
2023/01/07 05:42:24;;;;;;;21.88;16.08;;;10.50;99.90;;;;;;5073053;28;20051;-70
2023/01/07 05:44:49;;;;;;;26.20;17.85;;;10.50;99.90;;;;;;5074130;28;20033;-70
2023/01/07 05:47:15;;;;;;;21.15;15.98;;;10.40;99.90;;;;;;5074346;28;20056;-70
2023/01/07 05:49:40;;;;;;;22.85;16.55;;;10.50;99.90;;;;;;5056434;28;20115;-71
2023/01/07 05:52:06;;;;;;;23.27;16.80;;;10.40;99.90;;;;;;5073300;28;20033;-70
2023/01/07 05:54:31;;;;;;;20.75;15.63;;;10.40;99.90;;;;;;5055662;28;20120;-70
2023/01/07 05:56:57;;;;;;;25.27;15.90;;;10.50;99.90;;;;;;5083098;28;20516;-71
2023/01/07 05:59:22;;;;;;;21.42;16.15;;;10.50;99.90;;;;;;5094032;28;20046;-70
2023/01/07 06:01:48;;;;;;;25.75;15.50;;;10.40;99.90;;;;;;5093851;28;20046;-70
2023/01/07 06:04:13;;;;;;;20.77;15.82;;;10.50;99.90;;;;;;5093036;28;20119;-71
2023/01/07 06:06:39;;;;;;;22.13;16.33;;;10.50;99.90;;;;;;5093931;28;20320;-70
2023/01/07 06:09:05;;;;;;;24.88;16.13;;;10.40;99.90;;;;;;5093833;28;20036;-70
2023/01/07 06:11:31;;;;;;;24.48;14.93;;;10.30;99.90;;;;;;5093599;28;20557;-70
2023/01/07 06:13:56;;;;;;;22.23;15.15;;;10.40;99.90;;;;;;5092958;28;20119;-70
2023/01/07 06:16:22;;;;;;;23.17;13.63;;;10.40;99.90;;;;;;5093639;28;20119;-70
2023/01/07 06:18:47;;;;;;;20.77;14.32;;;10.40;99.90;;;;;;5093446;28;20043;-71
2023/01/07 06:21:15;;;;;;;20.33;13.95;;;10.40;99.90;;;;;;5093348;28;20048;-70
2023/01/07 06:23:40;;;;;;;20.23;14.32;;;10.50;99.90;;;;;;5092867;28;20096;-71
2023/01/07 06:26:06;;;;;;;23.20;15.05;;;10.50;99.90;;;;;;5075126;28;20115;-71
2023/01/07 06:28:31;;;;;;;17.98;13.38;;;10.50;99.90;;;;;;5075389;28;20117;-71
2023/01/07 06:30:57;;;;;;;20.17;13.43;;;10.40;99.90;;;;;;5093531;28;20043;-71
2023/01/07 06:33:22;;;;;;;17.88;12.40;;;10.50;99.90;;;;;;5092563;28;20036;-71
2023/01/07 06:35:48;;;;;;;20.77;13.10;;;10.40;99.90;;;;;;5093693;28;20055;-70
2023/01/07 06:38:13;;;;;;;18.15;13.20;;;10.50;99.90;;;;;;5093367;28;20063;-70
2023/01/07 06:40:39;;;;;;;17.23;13.00;;;10.50;99.90;;;;;;5092935;28;20497;-70
2023/01/07 06:43:04;;;;;;;18.00;12.98;;;10.40;99.90;;;;;;5091353;28;20090;-70
2023/01/07 06:45:30;;;;;;;19.65;11.93;;;10.50;99.90;;;;;;5073893;28;20077;-70
2023/01/07 06:47:57;;;;;;;18.65;12.43;;;10.30;99.90;;;;;;5091861;28;20036;-70
2023/01/07 06:50:23;;;;;;;18.95;12.40;;;10.40;99.90;;;;;;5073854;28;20498;-71
2023/01/07 06:52:48;;;;;;;18.52;12.80;;;10.30;99.90;;;;;;5092574;28;20050;-71
2023/01/07 06:55:14;;;;;;;17.35;12.95;;;10.40;99.90;;;;;;5092941;28;20039;-71
2023/01/07 06:57:39;;;;;;;18.23;12.90;;;10.30;99.90;;;;;;5092773;28;20071;-71
2023/01/07 07:00:05;;;;;;;20.58;13.23;;;10.30;99.90;;;;;;5092918;28;20055;-71
2023/01/07 07:02:32;;;;;;;18.40;12.95;;;10.50;99.90;;;;;;5091980;28;20048;-70
2023/01/07 07:04:58;;;;;;;17.38;11.57;;;10.40;99.90;;;;;;5091544;28;20052;-71
2023/01/07 07:07:24;;;;;;;17.77;12.52;;;10.30;99.90;;;;;;5092619;28;20040;-71
2023/01/07 07:09:50;;;;;;;20.38;12.43;;;10.30;99.90;;;;;;5092863;28;20040;-70
2023/01/07 07:12:15;;;;;;;18.33;12.57;;;10.50;99.90;;;;;;5092426;28;20039;-71
2023/01/07 07:14:41;;;;;;;15.90;10.95;;;10.40;99.90;;;;;;5092560;28;20115;-70
2023/01/07 07:17:07;;;;;;;11.98;10.45;;;10.40;99.90;;;;;;5092439;28;20028;-71
2023/01/07 07:19:32;;;;;;;15.98;11.35;;;10.30;99.90;;;;;;5074421;28;20498;-70
2023/01/07 07:21:58;;;;;;;17.52;11.95;;;10.40;99.90;;;;;;5092640;28;20476;-70
2023/01/07 07:24:23;;;;;;;15.55;10.63;;;10.40;99.90;;;;;;5091761;28;20094;-71
2023/01/07 07:26:49;;;;;;;14.43;10.48;;;10.20;99.90;;;;;;5092118;28;20032;-71
2023/01/07 07:29:15;;;;;;;15.88;11.27;;;10.40;99.90;;;;;;5073888;28;20044;-71
2023/01/07 07:31:41;;;;;;;18.38;11.25;;;10.20;99.90;;;;;;5092117;28;20085;-72
2023/01/07 07:34:07;;;;;;;12.98;10.70;;;10.40;99.90;;;;;;5091679;28;20166;-70
2023/01/07 07:36:33;;;;;;;14.82;10.13;;;10.50;99.90;;;;;;5093757;28;20047;-71
2023/01/07 07:38:58;;;;;;;16.17;11.43;;;10.30;99.90;;;;;;5092371;28;20040;-70
2023/01/07 07:41:24;;;;;;;16.90;10.63;;;10.30;99.90;;;;;;5092140;28;20520;-70
2023/01/07 07:43:49;;;;;;;13.30;11.20;;;10.30;99.90;;;;;;5072921;28;20051;-71
2023/01/07 07:46:15;;;;;;;13.45;10.60;;;10.50;99.90;;;;;;5091463;28;20043;-71
2023/01/07 07:48:40;;;;;;;12.55;9.27;;;10.20;99.90;;;;;;5091689;28;20044;-71
2023/01/07 07:51:06;;;;;;;15.27;11.52;;;10.30;99.90;;;;;;5092124;28;20489;-70
2023/01/07 07:53:32;;;;;;;14.52;10.43;;;10.40;99.90;;;;;;5090926;28;20119;-71
2023/01/07 07:55:57;;;;;;;14.15;10.63;;;10.40;99.90;;;;;;5091807;28;20062;-71
2023/01/07 07:58:23;;;;;;;13.18;9.80;;;10.40;99.90;;;;;;5091782;28;20040;-71
2023/01/07 08:00:49;;;;;;;15.18;9.80;;;10.20;99.90;;;;;;5091711;28;20043;-71
2023/01/07 08:03:14;;;;;;;15.77;9.93;;;10.40;99.90;;;;;;5090777;28;20366;-70
2023/01/07 08:05:41;;;;;;;12.95;9.40;;;10.30;99.90;;;;;;5073372;28;20048;-70
2023/01/07 08:08:08;;;;;;;14.70;9.95;;;10.40;99.90;;;;;;5091685;28;20097;-71
2023/01/07 08:10:34;;;;;;;11.43;9.30;;;10.30;99.90;;;;;;5073586;28;20040;-70
2023/01/07 08:13:00;;;;;;;13.30;9.02;;;10.40;99.90;;;;;;5090760;28;20042;-71
2023/01/07 08:15:25;;;;;;;11.20;8.60;;;10.40;99.90;;;;;;5073267;28;20047;-71
2023/01/07 08:17:58;;;;;;;12.32;9.05;;;10.40;99.90;;;;;;5091132;28;20040;-71
2023/01/07 08:20:24;;;;;;;10.48;8.73;;;10.20;99.90;;;;;;5073616;28;20047;-71
2023/01/07 08:22:49;;;;;;;11.88;8.43;;;10.10;99.90;;;;;;5090840;28;20047;-73
2023/01/07 08:25:15;;;;;;;10.98;8.00;;;10.30;99.90;;;;;;5085306;28;20046;-71
2023/01/07 08:27:41;;;;;;;11.52;8.13;;;10.40;99.90;;;;;;5074972;28;20039;-71
2023/01/07 08:30:07;;;;;;;12.63;8.88;;;10.20;99.90;;;;;;5070997;28;20029;-71
2023/01/07 08:32:32;;;;;;;10.57;7.43;;;10.40;99.90;;;;;;5070371;28;20036;-71
2023/01/07 08:34:58;;;;;;;9.27;7.70;;;10.30;99.90;;;;;;5053149;28;20391;-71
2023/01/07 08:37:23;;;;;;;11.32;7.28;;;10.20;99.90;;;;;;5052910;28;20132;-70
2023/01/07 08:39:49;;;;;;;9.45;7.03;;;10.40;99.90;;;;;;5053112;28;20407;-71
2023/01/07 08:42:14;;;;;;;8.82;6.60;;;10.40;99.90;;;;;;5052915;28;20044;-71
2023/01/07 08:44:40;;;;;;;8.02;6.57;;;10.20;99.90;;;;;;5070242;28;20037;-70
2023/01/07 08:47:05;;;;;;;9.57;6.80;;;10.40;99.90;;;;;;5052892;28;20042;-70
2023/01/07 08:49:31;;;;;;;9.52;6.35;;;10.30;99.90;;;;;;5071167;28;20036;-70
2023/01/07 08:51:56;;;;;;;8.77;5.93;;;10.20;99.90;;;;;;5052901;28;20351;-70
2023/01/07 08:54:22;;;;;;;7.95;5.85;;;10.50;99.90;;;;;;5051847;28;20086;-70
2023/01/07 08:56:47;;;;;;;12.95;6.57;;;10.50;99.90;;;;;;5054388;28;20508;-70
2023/01/07 08:59:13;;;;;;;8.57;6.25;;;10.50;99.90;;;;;;5059831;28;20048;-70
2023/01/07 09:01:38;;;;;;;8.48;6.13;;;10.50;99.90;;;;;;5059103;28;20095;-70
2023/01/07 09:04:04;;;;;;;10.70;6.20;;;10.50;99.90;;;;;;5059787;28;20045;-70
2023/01/07 09:06:29;;;;;;;11.45;6.15;;;10.60;99.90;;;;;;5061234;28;20126;-70
2023/01/07 09:08:55;;;;;;;8.57;5.50;;;10.50;99.90;;;;;;5065401;28;20037;-71
2023/01/07 09:11:21;;;;;;;7.63;5.78;;;10.40;99.90;;;;;;5069733;28;20032;-71
2023/01/07 09:13:46;;;;;;;9.02;5.90;;;10.50;99.90;;;;;;5070037;28;20041;-71
2023/01/07 09:16:12;;;;;;;12.43;6.60;;;10.50;99.90;;;;;;5070520;28;20044;-71
2023/01/07 09:18:37;;;;;;;6.75;5.57;;;10.40;99.90;;;;;;5070807;28;20115;-71
2023/01/07 09:21:03;;;;;;;7.03;5.65;;;10.40;99.90;;;;;;5070789;28;20448;-70
2023/01/07 09:23:28;;;;;;;12.05;5.28;;;10.50;99.90;;;;;;5067811;28;20136;-70
2023/01/07 09:25:54;;;;;;;9.95;5.90;;;10.60;99.90;;;;;;5059310;28;20041;-71
2023/01/07 09:28:19;;;;;;;9.23;5.93;;;10.30;99.90;;;;;;5062644;28;20033;-70
2023/01/07 09:30:45;;;;;;;8.23;6.07;;;10.50;99.90;;;;;;5059275;28;20051;-71
2023/01/07 09:33:10;;;;;;;11.02;5.25;;;10.50;99.90;;;;;;5053676;28;20029;-70
2023/01/07 09:35:36;;;;;;;10.25;6.10;;;10.30;99.90;;;;;;5054321;28;20048;-70
2023/01/07 09:38:02;;;;;;;7.35;5.97;;;10.40;99.90;;;;;;5056616;28;20039;-71
2023/01/07 09:40:34;;;;;;;7.75;5.38;;;10.30;99.90;;;;;;5062027;28;20091;-71
2023/01/07 09:43:17;;;;;;;9.85;5.18;;;10.40;99.90;;;;;;5062508;28;20072;-71
2023/01/07 09:45:45;;;;;;;;;;;10.30;99.90;;;;;;5046162;28;20045;-71
2023/01/07 09:48:35;;;;;;;6.97;4.88;;;10.30;99.90;;;;;;5061174;28;19968;-70
2023/01/07 09:51:04;;;;;;;8.05;4.90;;;10.20;99.90;;;;;;5046509;28;20487;-71
2023/01/07 09:53:38;;;;;;;8.77;5.22;;;10.40;99.90;;;;;;5065189;28;20025;-70
2023/01/07 09:56:10;;;;;;;8.02;6.05;;;10.50;99.90;;;;;;5072973;28;20047;-71
2023/01/07 09:58:37;;;;;;;8.05;4.55;;;10.40;99.90;;;;;;5074099;28;20048;-70
2023/01/07 10:01:22;;;;;;;7.63;4.88;;;10.40;99.90;;;;;;5074035;28;20121;-70
2023/01/07 10:04:27;;;;;;;6.80;5.07;;;10.30;99.90;;;;;;5069802;28;20033;-70
2023/01/07 10:06:59;;;;;;;6.20;4.55;;;10.30;99.90;;;;;;5073745;28;20040;-71
2023/01/07 10:09:42;;;;;;;6.07;4.63;;;10.40;99.90;;;;;;5056369;28;20408;-71
2023/01/07 10:12:14;;;;;;;8.60;4.70;;;10.30;99.90;;;;;;5074090;28;20041;-70
2023/01/07 10:15:14;;;;;;;5.40;4.68;;;10.30;99.90;;;;;;5073932;28;20047;-70
2023/01/07 10:17:59;;;;;;;6.13;4.05;;;10.30;99.90;;;;;;5074166;28;20044;-70
2023/01/07 10:20:33;;;;;;;6.05;4.75;;;10.40;99.90;;;;;;5068451;28;20043;-70
2023/01/07 10:23:18;;;;;;;7.07;4.50;;;10.30;99.90;;;;;;5072146;28;20402;-72
2023/01/07 10:25:48;;;;;;;6.20;4.50;;;10.30;99.90;;;;;;5072874;28;20574;-71
2023/01/07 10:28:23;;;;;;;9.88;4.18;;;10.30;99.90;;;;;;5054048;28;20051;-70
2023/01/07 10:30:52;;;;;;;8.68;4.47;;;10.50;99.90;;;;;;5062476;28;20059;-70
2023/01/07 10:33:24;;;;;;;8.05;4.50;;;10.50;99.90;;;;;;5061162;28;20519;-70
2023/01/07 10:36:02;;;;;;;6.72;4.13;;;10.40;99.90;;;;;;5053575;28;20044;-71
2023/01/07 10:38:33;;;;;;;4.47;3.58;;;10.40;99.90;;;;;;5053324;28;20048;-71
2023/01/07 10:41:06;;;;;;;6.47;4.20;;;10.50;99.90;;;;;;5053227;28;20083;-71
2023/01/07 10:43:50;;;;;;;4.75;3.53;;;10.50;99.90;;;;;;5052191;28;20100;-71
2023/01/07 10:46:45;;;;;;;3.92;3.25;;;10.50;99.90;;;;;;5053058;28;20041;-71
2023/01/07 10:49:40;;;;;;;5.90;4.10;;;10.60;99.90;;;;;;5053219;28;20044;-71
2023/01/07 10:52:29;;;;;;;4.70;3.40;;;10.60;99.90;;;;;;5055032;28;20099;-71
2023/01/07 10:55:18;;;;;;;4.43;3.33;;;10.60;99.90;;;;;;5072293;28;20037;-70
2023/01/07 10:57:46;;;;;;;4.80;3.10;;;10.50;99.90;;;;;;5072138;28;20044;-71
2023/01/07 11:00:14;;;;;;;6.45;3.20;;;10.50;99.90;;;;;;5072738;28;20040;-71
2023/01/07 11:02:57;;;;;;;5.13;3.10;;;10.60;99.90;;;;;;5054233;28;20082;-71
2023/01/07 11:05:31;;;;;;;4.40;3.13;;;10.70;99.90;;;;;;5054912;28;20048;-71
2023/01/07 11:08:00;;;;;;;5.75;2.97;;;10.60;99.90;;;;;;5054838;28;20040;-73
2023/01/07 11:10:32;;;;;;;5.15;3.03;;;10.70;99.90;;;;;;5054780;28;20037;-71
2023/01/07 11:13:05;;;;;;;4.55;3.05;;;10.70;99.90;;;;;;5054296;28;20037;-71
2023/01/07 11:15:35;;;;;;;3.33;2.47;;;10.80;99.90;;;;;;5072905;28;20041;-71
2023/01/07 11:18:05;;;;;;;3.70;3.25;;;10.70;99.90;;;;;;5072903;28;20063;-71
2023/01/07 11:20:52;;;;;;;3.80;2.65;;;10.80;99.90;;;;;;5072661;28;20040;-71
2023/01/07 11:23:29;;;;;;;3.67;2.88;;;10.80;99.90;;;;;;5053829;28;20055;-71
2023/01/07 11:26:07;;;;;;;4.03;2.40;;;10.90;99.90;;;;;;5054283;28;20498;-71
2023/01/07 11:28:33;;;;;;;3.92;2.85;;;10.90;99.90;;;;;;5054337;28;20036;-71
2023/01/07 11:31:00;;;;;;;3.35;2.65;;;10.80;99.90;;;;;;5072315;28;20032;-71
2023/01/07 11:33:51;;;;;;;3.80;3.08;;;11.00;99.90;;;;;;5053462;28;20120;-71
2023/01/07 11:36:17;;;;;;;2.55;2.25;;;10.90;99.90;;;;;;5032874;28;20052;-71
2023/01/07 11:38:43;;;;;;;4.15;2.67;;;11.00;99.90;;;;;;5072399;28;20529;-70
2023/01/07 11:41:24;;;;;;;4.78;2.22;;;11.10;99.90;;;;;;5054172;28;20051;-71
2023/01/07 11:43:51;;;;;;;5.43;2.72;;;11.10;99.90;;;;;;5071282;28;20138;-71
2023/01/07 11:46:18;;;;;;;3.63;2.55;;;11.00;99.90;;;;;;5072115;28;20052;-70
2023/01/07 11:48:53;;;;;;;2.88;2.15;;;11.10;99.90;;;;;;5054177;28;20044;-71
2023/01/07 11:51:23;;;;;;;2.95;2.08;;;11.10;99.90;;;;;;5053815;28;20044;-70
2023/01/07 11:53:48;;;;;;;3.20;2.40;;;11.10;99.90;;;;;;5071309;28;20559;-70
2023/01/07 11:56:27;;;;;;;3.35;2.50;;;11.10;99.90;;;;;;5056524;28;20139;-70
2023/01/07 11:59:13;;;;;;;4.78;2.22;;;11.10;99.90;;;;;;5091122;28;20054;-70
2023/01/07 12:01:45;;;;;;;3.63;1.92;;;11.00;99.90;;;;;;5090759;28;20351;-71
2023/01/07 12:04:21;;;;;;;4.22;2.55;;;11.00;99.90;;;;;;5091266;28;20402;-70
2023/01/07 12:06:50;;;;;;;4.85;2.60;;;11.10;99.90;;;;;;5091818;28;20040;-71
2023/01/07 12:09:24;;;;;;;3.53;2.78;;;11.00;99.90;;;;;;5090660;28;20036;-71
2023/01/07 12:11:50;;;;;;;;;;;11.10;99.90;;;;;;5091308;28;20048;-70
2023/01/07 12:14:30;;;;;;;4.35;2.20;;;11.10;99.90;;;;;;5090228;28;19916;-70
2023/01/07 12:17:10;;;;;;;5.28;1.85;;;11.00;99.90;;;;;;5091943;28;20113;-71
2023/01/07 12:19:45;;;;;;;3.40;2.22;;;11.00;99.90;;;;;;5090680;28;20084;-70
2023/01/07 12:22:45;;;;;;;2.85;2.13;;;11.00;99.90;;;;;;5091782;28;20547;-71
2023/01/07 12:25:38;;;;;;;4.40;2.40;;;11.00;99.90;;;;;;5059853;28;20033;-70
2023/01/07 12:28:24;;;;;;;3.03;2.30;;;11.10;99.90;;;;;;5059288;28;20442;-70
2023/01/07 12:31:05;;;;;;;3.08;2.30;;;11.10;99.90;;;;;;5050525;28;20091;-71
2023/01/07 12:34:00;;;;;;;3.40;1.83;;;11.10;99.90;;;;;;5064706;28;20029;-70
2023/01/07 12:36:34;;;;;;;2.75;1.70;;;11.10;99.90;;;;;;5071789;28;20040;-70
2023/01/07 12:39:07;;;;;;;2.97;1.60;;;11.20;99.90;;;;;;5070372;28;20048;-71
2023/01/07 12:41:37;;;;;;;3.83;1.83;;;11.20;99.90;;;;;;5070594;28;20047;-71
2023/01/07 12:44:17;;;;;;;4.00;2.10;;;11.30;99.90;;;;;;5052815;28;20041;-71
2023/01/07 12:46:54;;;;;;;3.17;1.58;;;11.30;99.90;;;;;;5070026;28;20134;-75
2023/01/07 12:49:32;;;;;;;1.90;1.70;;;11.30;99.90;;;;;;5053508;28;20379;-74
2023/01/07 12:52:05;;;;;;;2.08;1.30;;;11.20;99.90;;;;;;5070491;28;20436;-74